Terminal Aerodrome Forecast
Issued by NWS Sterling, VA

Current Version | Previous Version | Graphics & Text | Print | Product List | Glossary On
Versions: 1 2 3 4 5 6 7 8 9 10 11 12 13 14 15 16 17 18 19 20 21 22 23 24 25 26
000
FTUS41 KLWX 131730
TAFDCA
TAF
KDCA 131730Z 1318/1424 28015G23KT P6SM FEW130 FEW250
     FM132100 26010KT P6SM BKN080 BKN250
     FM132300 20006KT P6SM VCSH BKN070 BKN150
     FM140800 21010KT P6SM BKN060 BKN110
     FM141200 25009KT P6SM BKN050 BKN080
     FM141500 32012G19KT P6SM FEW040 SCT150=

USA.gov is the U.S. government's official web portal to all federal, state and local government web resources and services.